Impacts TAF Board
For situational awareness. Not to be used for flight planning purposes.
IDs:

KONP - Newport Muni, OR, US

Issued at 2327 UTC 05 Dec 2019
Updated at 0104 UTC 06 Dec 2019
Potential Impact None Slight Moderate High
Time0055Z 06/02Z 06/03Z 06/04Z 06/05Z 06/06Z 06/07Z 06/08Z 06/09Z 06/10Z 06/11Z 06/12Z 06/13Z 06/14Z>>
Type OBS PRVL PRVL PRVL PRVL PRVL PRVL PRVL PRVL PRVL PRVL PRVL PRVL PRVL
VIS 10 >6 >6 >6 >6 >6 >6 >6 >6 >6 >6 >6 >6 >6
CIG -- 100 100 100 100 100 100 100 100 100 100 100 100 100
Cover SCT BKN BKN BKN BKN BKN BKN OVC OVC OVC OVC OVC OVC OVC
FltCat VFR VFR VFR VFR VFR VFR VFR VFR VFR VFR VFR VFR VFR VFR
WX -- -- -- -- -- -- -- -- -- -- -- -- -- --
WDir 80 90 90 90 90 90 90 80 80 80 80 80 80 80
WSpd 9 7 7 7 7 7 7 6 6 6 6 6 6 6
WGst -- -- -- -- -- -- -- -- -- -- -- -- -- --
Raw TAF
KONP 052327Z 0600/0624 09007KT P6SM BKN100
  FM060800 08006KT P6SM SCT035 OVC100
  FM061600 09009KT P6SM -SHRA BKN040 OVC080
  FM062200 09007KT 6SM -RA BR BKN025 OVC050


Raw METAR
KONP 060055Z AUTO 08009KT 10SM SCT065 12/08 A2996 RMK AO2
KONP 060035Z AUTO 09008KT 10SM SCT065 12/08 A2996 RMK AO2
KONP 060015Z AUTO 09009KT 10SM BKN065 12/09 A2996 RMK AO2
KONP 052355Z AUTO 06008KT 10SM BKN065 12/09 A2997 RMK AO2
KONP 052335Z AUTO 08006KT 10SM SCT065 12/09 A2998 RMK AO2
KONP 052315Z AUTO 07006KT 10SM CLR 13/09 A2998 RMK AO2
KONP 052255Z AUTO 07007KT 10SM CLR 13/09 A2998 RMK AO2
KONP 052235Z AUTO 08006KT 10SM CLR 13/09 A2999 RMK AO2

METAR Board
Radar Display
Forecast Discussion
For situational awareness. Not to be used for flight planning purposes.